createdAt,value
2022-08-26T00:02:10.728Z,2.83
2022-08-26T00:07:18.246Z,2.83
2022-08-26T00:12:25.842Z,2.83
2022-08-26T00:17:33.745Z,2.83
2022-08-26T00:22:41.779Z,2.83
2022-08-26T00:27:50.485Z,2.84
2022-08-26T00:32:58.881Z,2.84
2022-08-26T00:38:05.674Z,2.84
2022-08-26T00:43:12.222Z,2.83
2022-08-26T00:48:19.570Z,2.83
2022-08-26T00:53:26.621Z,2.83
2022-08-26T00:58:34.392Z,2.83
2022-08-26T01:03:41.674Z,2.83
2022-08-26T01:08:48.886Z,2.83
2022-08-26T01:13:56.352Z,2.83
2022-08-26T01:19:03.679Z,2.83
2022-08-26T01:24:10.844Z,2.84
2022-08-26T01:29:18.645Z,2.84
2022-08-26T01:34:27.350Z,2.84
2022-08-26T01:39:34.628Z,2.83
2022-08-26T01:44:42.151Z,2.83
2022-08-26T01:49:49.681Z,2.83
2022-08-26T01:54:56.366Z,2.83
2022-08-26T02:00:03.421Z,2.83
2022-08-26T02:05:10.918Z,2.84
2022-08-26T02:10:17.827Z,2.83
2022-08-26T02:15:25.043Z,2.82
2022-08-26T02:20:32.603Z,2.83
2022-08-26T02:25:40.260Z,2.83
2022-08-26T02:30:48.533Z,2.83
2022-08-26T02:35:56.181Z,2.83
2022-08-26T02:41:03.140Z,2.83
2022-08-26T02:46:11.638Z,2.83
2022-08-26T02:51:19.324Z,2.83
2022-08-26T02:56:27.414Z,2.83
2022-08-26T03:01:34.296Z,2.84
2022-08-26T03:06:42.132Z,2.83
2022-08-26T03:11:49.735Z,2.83
2022-08-26T03:16:57.512Z,2.83
2022-08-26T03:22:04.370Z,2.82
2022-08-26T03:27:14.011Z,2.83
2022-08-26T03:32:22.486Z,2.83
2022-08-26T03:37:35.270Z,2.83
2022-08-26T03:42:42.155Z,2.83
2022-08-26T03:47:50.046Z,2.83
2022-08-26T03:52:57.500Z,2.84
2022-08-26T03:58:05.739Z,2.83
2022-08-26T04:03:12.840Z,2.83
2022-08-26T04:08:21.000Z,2.83
2022-08-26T04:13:29.172Z,2.83
2022-08-26T04:18:36.453Z,2.83
2022-08-26T04:23:42.939Z,2.83
2022-08-26T04:28:52.239Z,2.83
2022-08-26T04:34:05.803Z,2.83
2022-08-26T04:39:14.011Z,2.83
2022-08-26T04:44:21.418Z,2.82
2022-08-26T04:49:29.470Z,2.83
2022-08-26T04:54:37.053Z,2.83
2022-08-26T04:59:45.667Z,2.83
2022-08-26T05:04:52.707Z,2.83
2022-08-26T05:09:59.136Z,2.83
2022-08-26T05:15:07.100Z,2.83
2022-08-26T05:20:15.148Z,2.85
2022-08-26T05:25:23.947Z,2.86
2022-08-26T05:30:32.413Z,2.88
2022-08-26T05:35:39.771Z,2.88
2022-08-26T05:40:48.089Z,2.89
2022-08-26T05:45:55.398Z,2.9
2022-08-26T05:51:02.642Z,2.91
2022-08-26T05:56:09.485Z,2.89
2022-08-26T06:01:17.844Z,2.89
2022-08-26T06:06:24.245Z,2.88
2022-08-26T06:11:31.756Z,2.88
2022-08-26T06:16:40.481Z,2.88
2022-08-26T06:21:49.136Z,2.88
2022-08-26T06:26:58.097Z,2.88
2022-08-26T06:32:05.943Z,2.87
2022-08-26T06:37:14.662Z,2.88
2022-08-26T06:42:23.055Z,2.88
2022-08-26T06:47:30.815Z,2.89
2022-08-26T06:52:38.011Z,2.9
2022-08-26T06:57:46.330Z,2.89
2022-08-26T07:02:54.240Z,2.9
2022-08-26T07:08:01.786Z,2.9
2022-08-26T07:13:09.647Z,2.91
2022-08-26T07:18:17.522Z,2.89
2022-08-26T07:23:25.367Z,2.89
2022-08-26T07:28:32.312Z,2.9
2022-08-26T07:33:40.231Z,2.9
2022-08-26T07:38:47.117Z,2.89
2022-08-26T07:43:54.801Z,2.9
2022-08-26T07:49:02.483Z,2.9
2022-08-26T07:54:10.335Z,2.89
2022-08-26T07:59:18.621Z,2.89
2022-08-26T08:04:26.118Z,2.9
2022-08-26T08:09:33.660Z,2.89
2022-08-26T08:14:41.475Z,2.9
2022-08-26T08:19:48.693Z,2.9
2022-08-26T08:24:55.961Z,2.91
2022-08-26T08:30:04.245Z,2.91
2022-08-26T08:35:11.694Z,2.9
2022-08-26T08:40:19.694Z,2.91
2022-08-26T08:45:27.294Z,2.91
2022-08-26T08:50:35.191Z,2.9
2022-08-26T08:55:42.319Z,2.91
2022-08-26T09:00:50.125Z,2.91
2022-08-26T09:05:57.470Z,2.91
2022-08-26T09:11:04.537Z,2.92
2022-08-26T09:16:12.380Z,2.91
2022-08-26T09:21:19.966Z,2.92
2022-08-26T09:26:26.776Z,2.92
2022-08-26T09:31:34.576Z,2.91
2022-08-26T09:36:42.257Z,2.9
2022-08-26T09:41:50.808Z,2.91
2022-08-26T09:46:58.577Z,2.91
2022-08-26T09:52:05.965Z,2.91
2022-08-26T09:57:14.657Z,2.92
2022-08-26T10:02:22.061Z,2.92
2022-08-26T10:07:30.134Z,2.92
2022-08-26T10:12:37.338Z,2.91
2022-08-26T10:17:45.684Z,2.91
2022-08-26T10:22:52.593Z,2.91
2022-08-26T10:28:01.173Z,2.92
2022-08-26T10:33:08.050Z,2.92
2022-08-26T10:38:15.931Z,2.92
2022-08-26T10:43:24.108Z,2.91
2022-08-26T10:48:31.708Z,2.91
2022-08-26T10:53:39.403Z,2.91
2022-08-26T10:58:46.174Z,2.91
2022-08-26T11:03:53.178Z,2.91
2022-08-26T11:09:01.021Z,2.92
2022-08-26T11:14:08.975Z,2.92
2022-08-26T11:19:17.202Z,2.92
2022-08-26T11:24:25.637Z,2.92
2022-08-26T11:29:33.010Z,2.91
2022-08-26T11:34:40.255Z,2.91
2022-08-26T11:39:49.276Z,2.92
2022-08-26T11:44:57.384Z,2.91
2022-08-26T11:50:05.235Z,2.92
2022-08-26T11:55:13.485Z,2.92
2022-08-26T12:00:20.786Z,2.92
2022-08-26T12:05:28.575Z,2.92
2022-08-26T12:10:36.401Z,2.92
2022-08-26T12:15:44.290Z,2.92
2022-08-26T12:20:51.367Z,2.92
2022-08-26T12:25:59.264Z,2.92
2022-08-26T12:31:07.828Z,2.92
2022-08-26T12:36:16.403Z,2.93
2022-08-26T12:41:24.176Z,2.94
2022-08-26T12:46:37.666Z,2.93
2022-08-26T12:51:44.226Z,2.93
2022-08-26T12:56:51.421Z,2.93
2022-08-26T13:01:59.268Z,2.94
2022-08-26T13:07:06.716Z,2.94
2022-08-26T13:12:13.704Z,2.94
2022-08-26T13:17:21.450Z,2.94
2022-08-26T13:22:29.671Z,2.94
2022-08-26T13:27:37.181Z,2.94
2022-08-26T13:32:44.549Z,2.93
2022-08-26T13:37:52.181Z,2.93
2022-08-26T13:43:00.320Z,2.93
2022-08-26T13:48:09.390Z,2.94
2022-08-26T13:53:16.318Z,2.94
2022-08-26T13:58:22.937Z,2.94
2022-08-26T14:03:30.399Z,2.93
2022-08-26T14:08:39.062Z,2.94
2022-08-26T14:13:46.201Z,2.94
2022-08-26T14:18:53.711Z,2.93
2022-08-26T14:25:32.978Z,2.92
2022-08-26T14:30:38.937Z,2.92
2022-08-26T14:35:45.503Z,2.93
2022-08-26T14:40:52.663Z,2.93
2022-08-26T14:46:00.506Z,2.93
2022-08-26T14:51:07.598Z,2.94
2022-08-26T14:56:16.597Z,2.93
2022-08-26T15:01:24.768Z,2.94
2022-08-26T15:06:32.248Z,2.92
2022-08-26T15:11:39.791Z,2.94
2022-08-26T15:16:47.451Z,2.93
2022-08-26T15:21:54.170Z,2.93
2022-08-26T15:27:01.376Z,2.94
2022-08-26T15:32:12.361Z,2.92
2022-08-26T15:37:20.219Z,2.92
2022-08-26T15:42:26.136Z,2.93
2022-08-26T15:47:32.701Z,2.92
2022-08-26T15:52:39.853Z,2.92
2022-08-26T15:57:46.639Z,2.92
2022-08-26T16:02:54.169Z,2.91
2022-08-26T16:08:01.069Z,2.92
2022-08-26T16:13:08.436Z,2.9
2022-08-26T16:18:14.894Z,2.91
2022-08-26T16:23:21.828Z,2.91
2022-08-26T16:28:29.332Z,2.91
2022-08-26T16:33:37.503Z,2.91
2022-08-26T16:38:44.636Z,2.92
2022-08-26T16:43:52.484Z,2.9
2022-08-26T16:48:59.403Z,2.91
2022-08-26T16:54:06.038Z,2.9
2022-08-26T16:59:14.306Z,2.89
2022-08-26T17:04:21.713Z,2.89
2022-08-26T17:09:29.826Z,2.89
2022-08-26T17:14:38.173Z,2.89
2022-08-26T17:19:46.012Z,2.88
2022-08-26T17:24:53.855Z,2.89
2022-08-26T17:30:00.544Z,2.88
2022-08-26T17:35:07.745Z,2.88
2022-08-26T17:40:15.356Z,2.88
2022-08-26T17:45:22.822Z,2.87
2022-08-26T17:50:30.672Z,2.89
2022-08-26T17:55:39.092Z,2.86
2022-08-26T18:00:47.026Z,2.87
2022-08-26T18:05:54.010Z,2.88
2022-08-26T18:11:00.252Z,2.87
2022-08-26T18:16:07.260Z,2.88
2022-08-26T18:21:14.464Z,2.88
2022-08-26T18:26:21.658Z,2.87
2022-08-26T18:31:29.823Z,2.88
2022-08-26T18:36:37.426Z,2.87
2022-08-26T18:41:45.294Z,2.87
2022-08-26T18:46:53.053Z,2.87
2022-08-26T18:52:04.112Z,2.88
2022-08-26T18:57:17.050Z,2.87
2022-08-26T19:02:23.581Z,2.88
2022-08-26T19:07:30.203Z,2.88
2022-08-26T19:12:37.342Z,2.88
2022-08-26T19:17:44.537Z,2.88
2022-08-26T19:23:06.731Z,2.88
2022-08-26T19:28:15.299Z,2.87
2022-08-26T19:33:23.049Z,2.86
2022-08-26T19:38:30.292Z,2.87
2022-08-26T19:43:44.730Z,2.88
2022-08-26T19:48:50.780Z,2.86
2022-08-26T19:53:58.621Z,2.87
2022-08-26T19:59:05.181Z,2.87
2022-08-26T20:04:12.956Z,2.86
2022-08-26T20:09:20.382Z,2.87
2022-08-26T20:14:28.063Z,2.86
2022-08-26T20:19:35.258Z,2.86
2022-08-26T20:24:42.462Z,2.86
2022-08-26T20:29:50.810Z,2.87
2022-08-26T20:34:58.896Z,2.87
2022-08-26T20:40:08.335Z,2.86
2022-08-26T20:45:15.309Z,2.87
2022-08-26T20:50:22.302Z,2.88
2022-08-26T20:55:29.634Z,2.88
2022-08-26T21:00:38.038Z,2.87
2022-08-26T21:05:43.883Z,2.86
2022-08-26T21:10:49.853Z,2.86
2022-08-26T21:15:58.808Z,2.85
2022-08-26T21:21:06.007Z,2.85
2022-08-26T21:26:13.345Z,2.85
2022-08-26T21:31:20.842Z,2.85
2022-08-26T21:36:28.373Z,2.84
2022-08-26T21:41:37.297Z,2.86
2022-08-26T21:46:45.037Z,2.85
2022-08-26T21:51:52.409Z,2.85
2022-08-26T21:56:59.935Z,2.85
2022-08-26T22:03:38.501Z,2.84
2022-08-26T22:08:45.021Z,2.85
2022-08-26T22:13:52.236Z,2.84
2022-08-26T22:18:59.542Z,2.85
2022-08-26T22:24:06.950Z,2.84
2022-08-26T22:29:15.724Z,2.84
2022-08-26T22:34:22.649Z,2.86
2022-08-26T22:39:30.174Z,2.85
2022-08-26T22:44:38.278Z,2.85
2022-08-26T22:49:45.818Z,2.86
2022-08-26T22:54:53.981Z,2.86
2022-08-26T23:00:02.020Z,2.86
2022-08-26T23:05:09.338Z,2.85
2022-08-26T23:10:16.567Z,2.86
2022-08-26T23:15:23.741Z,2.86
2022-08-26T23:20:32.533Z,2.86
2022-08-26T23:25:41.073Z,2.85
2022-08-26T23:30:49.347Z,2.86
2022-08-26T23:35:57.617Z,2.85
2022-08-26T23:41:04.862Z,2.85
2022-08-26T23:46:12.714Z,2.85
2022-08-26T23:51:20.604Z,2.85
2022-08-26T23:56:28.416Z,2.85
